Terminal Aerodrome Forecast
Issued by NWS North Platte, NE

Home | Current Version | Previous Version | Text Only | Print | Product List | Glossary On
Versions: 1 2 3 4 5 6 7 8 9 10 11 12
000
FTUS43 KLBF 202300
TAFLBF
TAF
KLBF 202329Z 2100/2124 16005KT P6SM SKC
     FM211500 17011G16KT P6SM SCT030=

USA.gov is the U.S. government's official web portal to all federal, state and local government web resources and services.